Flight Track Log - Related Links

Times and Time Zones

All times are in EDT time to prevent confusion due to time zone crossing. See the EJA846 flight status page for this flight to view local times or setup timezone preferences in your user account.

Time Position Orientation Groundspeed Altitude Reporting Facility
EDT Latitude Longitude Course Direction KTS MPH feet Rate Location/Type
Sat 08:58:15 AM 29.9661 -95.3456 186° South 174 200 600  Level Houston Center
Sat 08:59:16 AM 29.9142 -95.3517 186° South 250 288 3,500 1,855 Climbing Houston Center
Sat 09:00:05 AM 29.9281 -95.4086 286° West 264 304 4,000 270 Climbing Houston Center
Sat 09:01:07 AM 30.0019 -95.3917 11° North 278 320 4,000 49 Level Houston Center
Sat 09:02:08 AM 30.0747 -95.3517 25° Northeast 284 327 4,100 694 Climbing Houston Center
Sat 09:03:08 AM 30.1539 -95.3083 25° Northeast 287 330 5,400 2,213 Climbing Houston Center
Sat 09:04:10 AM 30.2208 -95.2717 25° Northeast 289 333 8,600 3,048 Climbing Houston Center
Sat 09:05:12 AM 30.2967 -95.2292 26° Northeast 294 338 11,700 2,244 Climbing Houston Center
Sat 09:06:13 AM 30.3850 -95.1864 23° Northeast 328 377 13,200 1,721 Climbing Houston Center
Sat 09:07:14 AM 30.4969 -95.1239 26° Northeast 355 409 15,200 1,854 Climbing Houston Center
Sat 09:08:16 AM 30.5936 -95.0711 25° Northeast 369 425 17,000 1,659 Climbing Houston Center
Sat 09:09:17 AM 30.6931 -95.0117 27° Northeast 386 444 18,600 1,672 Climbing Houston Center
Sat 09:10:18 AM 30.7931 -94.9483 29° Northeast 398 458 20,400 1,672 Climbing Houston Center
Sat 09:11:19 AM 30.8933 -94.8847 29° Northeast 406 467 22,000 1,643 Climbing Houston Center
Sat 09:11:42 AM 30.9392 -94.8583 26° Northeast 392 451 22,700 1,590 Climbing Fort Worth Center
Sat 09:12:42 AM 31.0422 -94.7950 28° Northeast 403 464 24,200 1,350 Climbing Fort Worth Center
Sat 09:13:42 AM 31.1411 -94.7339 28° Northeast 418 481 25,400 1,100 Climbing Fort Worth Center
Sat 09:14:42 AM 31.2419 -94.6631 31° Northeast 424 488 26,400 1,000 Climbing Fort Worth Center
Sat 09:15:42 AM 31.3489 -94.5917 30° Northeast 432 497 27,400 1,000 Climbing Fort Worth Center
Sat 09:16:42 AM 31.4597 -94.5128 31° Northeast 449 517 28,400 1,000 Climbing Fort Worth Center
Sat 09:17:42 AM 31.5686 -94.4364 31° Northeast 449 517 29,400 1,000 Climbing Fort Worth Center
Sat 09:18:42 AM 31.6775 -94.3619 30° Northeast 449 517 30,400 800 Climbing Fort Worth Center
Sat 09:19:42 AM 31.7864 -94.2850 31° Northeast 449 517 31,000 300 Climbing Fort Worth Center
Sat 09:20:42 AM 31.8969 -94.2081 31° Northeast 455 524 31,000  Level Fort Worth Center
Sat 09:21:42 AM 32.0078 -94.1306 31° Northeast 455 524 31,000  Level Fort Worth Center
Sat 09:22:42 AM 32.1144 -94.0556 31° Northeast 455 524 31,000  Level Fort Worth Center
Sat 09:23:42 AM 32.2206 -93.9731 33° Northeast 455 524 31,000  Level Fort Worth Center
Sat 09:24:42 AM 32.3314 -93.8975 30° Northeast 455 524 31,000  Level Fort Worth Center
Sat 09:25:42 AM 32.4397 -93.8172 32° Northeast 455 524 31,000  Level Fort Worth Center
Sat 09:26:42 AM 32.5522 -93.7386 30° Northeast 455 524 31,000  Level Fort Worth Center
Sat 09:27:42 AM 32.6667 -93.6600 30° Northeast 455 524 31,000  Level Fort Worth Center
Sat 09:28:42 AM 32.7792 -93.5786 31° Northeast 455 524 31,000  Level Fort Worth Center
Sat 09:29:42 AM 32.8894 -93.4997 31° Northeast 455 524 31,000  Level Fort Worth Center
Sat 09:30:42 AM 33.0017 -93.4181 31° Northeast 460 529 31,000 -650 Level Fort Worth Center
Sat 09:31:42 AM 33.1261 -93.3283 31° Northeast 465 535 29,700 -1,094 Descending Fort Worth Center
Sat 09:33:21 AM 33.3100 -93.1958 31° Northeast 485 558 28,100 -981 Descending Memphis Center
Sat 09:34:21 AM 33.4203 -93.1175 31° Northeast 472 543 27,100 -1,000 Descending Memphis Center
Sat 09:35:21 AM 33.5303 -93.0386 31° Northeast 466 536 26,100 -1,000 Descending Memphis Center
Sat 09:36:21 AM 33.6386 -92.9597 31° Northeast 461 531 25,100 -1,000 Descending Memphis Center
Sat 09:37:21 AM 33.7467 -92.8803 31° Northeast 461 531 24,100 -1,000 Descending Memphis Center
Sat 09:38:21 AM 33.8525 -92.8033 31° Northeast 456 525 23,100 -1,012 Descending Memphis Center
Sat 09:38:44 AM 33.8864 -92.7794 30° Northeast 442 509 22,700 -2,700 Descending Memphis Center
Sat 09:39:21 AM 33.9561 -92.7261 32° Northeast 450 518 20,400 -4,274 Descending Memphis Center
Sat 09:39:57 AM 34.0114 -92.6850 32° Northeast 433 498 17,500 -4,300 Descending Memphis Center
Sat 09:40:21 AM 34.0536 -92.6536 32° Northeast 432 497 16,100 -4,000 Descending Memphis Center
Sat 09:40:57 AM 34.1003 -92.6147 35° Northeast 388 447 13,500 -4,200 Descending Memphis Center
Sat 09:41:21 AM 34.1403 -92.5856 31° Northeast 398 458 11,900 -3,344 Descending Memphis Center
Sat 09:41:58 AM 34.1889 -92.5517 30° Northeast 337 388 10,100 -1,900 Descending Memphis Center
Sat 09:42:21 AM 34.2228 -92.5225 35° Northeast 363 418 10,000 -98 Descending Memphis Center
Sat 09:42:59 AM 34.2694 -92.4883 31° Northeast 350 403 10,000  Level Memphis Center
Sat 09:43:21 AM 34.3075 -92.4592 32° Northeast 353 406 10,000  Level Memphis Center
Sat 09:43:59 AM 34.3581 -92.4253 29° Northeast 357 411 10,000  Level Memphis Center
Sat 09:44:21 AM 34.3897 -92.3983 35° Northeast 348 400 10,000  Level Memphis Center
Sat 09:45:00 AM 34.4428 -92.3567 33° Northeast 356 410 10,000 -400 Level Memphis Center
Sat 09:45:21 AM 34.4700 -92.3397 27° Northeast 347 399 9,600 -2,000 Descending Memphis Center
Sat 09:46:00 AM 34.5122 -92.3056 34° Northeast 292 336 8,000 -2,400 Descending Memphis Center
Sat 09:46:21 AM 34.5419 -92.2858 29° Northeast 322 371 7,200 -2,361 Descending Memphis Center
Sat 09:47:01 AM 34.5861 -92.2517 32° Northeast 293 337 5,600 -2,100 Descending Memphis Center
Sat 09:47:21 AM 34.6094 -92.2319 35° Northeast 298 343 5,100 -590 Descending Memphis Center
Sat 09:48:02 AM 34.6456 -92.1925 42° Northeast 287 330 5,000 -100 Descending Memphis Center
Sat 09:48:21 AM 34.6667 -92.1650 47° Northeast 285 328 5,000 -1,000 Level Memphis Center
Sat 09:49:02 AM 34.6967 -92.1153 54° Northeast 287 330 4,000 -1,600 Descending Memphis Center
Sat 09:49:21 AM 34.7158 -92.0878 50° Northeast 273 314 3,400 -1,869 Descending Memphis Center
Sat 09:50:03 AM 34.7500 -92.0356 51° Northeast 293 337 2,100 -1,400 Descending Memphis Center
Sat 09:50:21 AM 34.7689 -92.0131 44° Northeast 278 320 2,000 -98 Descending Memphis Center
Sat 09:51:04 AM 34.8006 -91.9986 21° North 228 262 2,000  Level Memphis Center
Sat 09:51:21 AM 34.8172 -92.0064 339° North 211 243 2,000  Level Memphis Center
Sat 09:52:04 AM 34.8439 -92.0397 314° West 174 200 2,000  Level Memphis Center
Sat 09:52:21 AM 34.8478 -92.0550 287° West 151 174 2,000  Level Memphis Center
Sat 09:53:05 AM 34.8367 -92.0953 251° West 141 162 2,000  Level Memphis Center
Sat 09:53:21 AM 34.8347 -92.1003 245° Southwest 103 119 2,000  Level Memphis Center
Sat 09:54:05 AM 34.8092 -92.1303 224° Southwest 136 157 2,000 -229 Level Memphis Center
Sat 09:55:06 AM 34.7817 -92.1625 224° Southwest 126 145 1,600 -541 Descending Memphis Center
Sat 09:56:07 AM 34.7603 -92.1897 226° Southwest 115 132 900 -689 Descending Memphis Center

Login

Don't have an account? Register now (free) for customized features, flight alerts, and more!